Time;durP1;ratioP1;P1;durP2;ratioP2;P2;SDS_P1;SDS_P2;PMS_P1;PMS_P2;Temp;Humidity;BMP_temperature;BMP_pressure;BME280_temperature;BME280_humidity;BME280_pressure;Samples;Min_cycle;Max_cycle;Signal;HPM_P1;HPM_P2
2023/08/25 00:02:11;;;;;;;12.95;7.07;;;;;;;;;;5112046;28;20036;-75
2023/08/25 00:04:37;;;;;;;8.40;6.30;;;;;;;;;;5093613;28;20080;-75
2023/08/25 00:07:03;;;;;;;11.60;6.43;;;;;;;;;;5111730;28;20031;-77
2023/08/25 00:09:30;;;;;;;13.02;6.60;;;;;;;;;;5073124;28;20039;-76
2023/08/25 00:11:55;;;;;;;12.00;6.40;;;;;;;;;;5103088;28;20169;-77
2023/08/25 00:14:21;;;;;;;16.40;6.05;;;;;;;;;;5076408;28;20040;-76
2023/08/25 00:16:48;;;;;;;14.48;6.00;;;;;;;;;;5111733;28;20035;-76
2023/08/25 00:19:17;;;;;;;12.18;5.90;;;;;;;;;;5092972;28;20040;-75
2023/08/25 00:21:43;;;;;;;8.65;5.57;;;;;;;;;;5093144;28;20607;-77
2023/08/25 00:24:09;;;;;;;8.73;4.60;;;;;;;;;;5111440;28;20206;-76
2023/08/25 00:26:35;;;;;;;11.88;5.88;;;;;;;;;;5093105;28;20031;-76
2023/08/25 00:29:02;;;;;;;6.30;4.55;;;;;;;;;;5111449;28;20048;-77
2023/08/25 00:31:28;;;;;;;8.07;5.57;;;;;;;;;;5093239;28;20510;-76
2023/08/25 00:33:55;;;;;;;14.05;5.95;;;;;;;;;;5111134;28;20047;-77
2023/08/25 00:36:21;;;;;;;13.32;5.53;;;;;;;;;;5092898;28;20116;-77
2023/08/25 00:38:47;;;;;;;10.20;5.30;;;;;;;;;;5092985;28;20407;-77
2023/08/25 00:41:13;;;;;;;11.18;4.80;;;;;;;;;;5111283;28;20043;-76
2023/08/25 00:43:40;;;;;;;8.13;4.50;;;;;;;;;;5092756;28;20574;-76
2023/08/25 00:46:06;;;;;;;10.48;5.15;;;;;;;;;;5092886;28;20044;-78
2023/08/25 00:48:32;;;;;;;9.27;5.90;;;;;;;;;;5074735;28;20047;-77
2023/08/25 00:50:58;;;;;;;11.82;4.78;;;;;;;;;;5109158;28;20036;-76
2023/08/25 00:53:24;;;;;;;12.70;5.40;;;;;;;;;;5074462;28;20041;-75
2023/08/25 00:55:50;;;;;;;6.55;5.07;;;;;;;;;;5091303;28;20031;-76
2023/08/25 00:58:16;;;;;;;6.10;4.22;;;;;;;;;;5090879;28;20058;-77
2023/08/25 01:00:43;;;;;;;4.53;4.15;;;;;;;;;;5108817;28;20080;-77
2023/08/25 01:03:09;;;;;;;9.02;4.60;;;;;;;;;;5074506;28;20535;-77
2023/08/25 01:05:36;;;;;;;7.70;4.50;;;;;;;;;;5092447;28;20042;-77
2023/08/25 01:08:04;;;;;;;6.72;4.00;;;;;;;;;;5092588;28;20043;-76
2023/08/25 01:11:03;;;;;;;4.80;4.40;;;;;;;;;;5075840;28;20038;-77
2023/08/25 01:13:32;;;;;;;6.35;4.30;;;;;;;;;;5065612;28;20414;-75
2023/08/25 01:15:58;;;;;;;4.63;4.28;;;;;;;;;;5092853;28;20521;-77
2023/08/25 01:18:25;;;;;;;5.38;4.22;;;;;;;;;;5110404;28;20031;-78
2023/08/25 01:20:53;;;;;;;10.15;5.35;;;;;;;;;;5075600;28;20205;-76
2023/08/25 01:23:19;;;;;;;6.25;4.72;;;;;;;;;;5092383;28;20035;-77
2023/08/25 01:25:48;;;;;;;6.07;5.10;;;;;;;;;;5075186;28;20086;-78
2023/08/25 01:28:14;;;;;;;7.82;5.40;;;;;;;;;;5110488;28;20039;-77
2023/08/25 01:30:40;;;;;;;4.90;4.50;;;;;;;;;;5091981;28;20032;-76
2023/08/25 01:33:06;;;;;;;5.85;5.28;;;;;;;;;;5075549;28;20031;-76
2023/08/25 01:35:51;;;;;;;5.57;5.07;;;;;;;;;;5110675;28;20629;-77
2023/08/25 01:38:20;;;;;;;5.60;4.78;;;;;;;;;;5110526;28;20039;-77
2023/08/25 01:40:56;;;;;;;5.30;4.82;;;;;;;;;;5075360;28;20051;-77
2023/08/25 01:43:22;;;;;;;6.43;5.45;;;;;;;;;;5075533;28;20130;-76
2023/08/25 01:45:48;;;;;;;8.32;5.53;;;;;;;;;;5091907;28;20595;-78
2023/08/25 01:48:15;;;;;;;11.32;6.18;;;;;;;;;;5092242;28;20074;-76
2023/08/25 01:50:41;;;;;;;7.10;6.30;;;;;;;;;;5091846;28;20503;-75
2023/08/25 01:53:09;;;;;;;8.23;6.30;;;;;;;;;;5092348;28;20123;-77
2023/08/25 01:55:35;;;;;;;7.78;6.53;;;;;;;;;;5091815;28;20467;-77
2023/08/25 01:58:02;;;;;;;8.52;6.45;;;;;;;;;;5092033;28;20094;-77
2023/08/25 02:00:28;;;;;;;7.55;6.82;;;;;;;;;;5110001;28;20448;-77
2023/08/25 02:02:55;;;;;;;6.95;5.85;;;;;;;;;;5110400;28;20047;-77
2023/08/25 02:05:22;;;;;;;7.80;5.88;;;;;;;;;;5075217;28;20023;-76
2023/08/25 02:07:48;;;;;;;12.70;9.82;;;;;;;;;;5109892;28;20134;-77
2023/08/25 02:10:15;;;;;;;9.35;8.45;;;;;;;;;;5110132;28;20034;-77
2023/08/25 02:12:41;;;;;;;11.10;10.00;;;;;;;;;;5091768;28;20576;-77
2023/08/25 02:15:07;;;;;;;14.25;8.18;;;;;;;;;;5075211;28;20038;-76
2023/08/25 02:17:35;;;;;;;13.20;7.18;;;;;;;;;;5074740;28;20028;-77
2023/08/25 02:20:04;;;;;;;7.70;6.90;;;;;;;;;;5075468;28;20040;-76
2023/08/25 02:22:30;;;;;;;7.05;6.18;;;;;;;;;;5059013;28;20023;-75
2023/08/25 02:24:56;;;;;;;6.20;5.60;;;;;;;;;;5110569;28;20038;-76
2023/08/25 02:27:22;;;;;;;5.82;5.43;;;;;;;;;;5111778;28;20101;-76
2023/08/25 02:29:48;;;;;;;6.57;5.53;;;;;;;;;;5101542;28;20035;-78
2023/08/25 02:32:15;;;;;;;5.80;5.30;;;;;;;;;;5127203;28;20036;-76
2023/08/25 02:34:41;;;;;;;8.60;6.10;;;;;;;;;;5129625;28;20028;-77
2023/08/25 02:37:07;;;;;;;7.60;5.90;;;;;;;;;;5121890;28;20522;-77
2023/08/25 02:39:33;;;;;;;9.85;6.00;;;;;;;;;;5079173;28;20081;-74
2023/08/25 02:41:59;;;;;;;12.82;8.27;;;;;;;;;;5095651;28;20058;-78
2023/08/25 02:44:25;;;;;;;11.48;5.90;;;;;;;;;;5113953;28;20506;-78
2023/08/25 02:46:52;;;;;;;12.80;6.88;;;;;;;;;;5095503;28;20692;-75
2023/08/25 02:49:19;;;;;;;9.20;6.30;;;;;;;;;;5095426;28;20101;-77
2023/08/25 02:51:45;;;;;;;11.32;6.15;;;;;;;;;;5094910;28;20039;-75
2023/08/25 02:54:13;;;;;;;5.78;4.82;;;;;;;;;;5078639;28;20086;-76
2023/08/25 02:56:41;;;;;;;6.90;5.70;;;;;;;;;;5112980;28;20040;-75
2023/08/25 02:59:07;;;;;;;6.15;5.60;;;;;;;;;;5094907;28;20058;-76
2023/08/25 03:01:35;;;;;;;5.65;5.05;;;;;;;;;;5078001;28;20040;-77
2023/08/25 03:04:01;;;;;;;6.22;5.32;;;;;;;;;;5095155;28;20028;-76
2023/08/25 03:06:27;;;;;;;7.97;5.15;;;;;;;;;;5077994;28;20098;-76
2023/08/25 03:08:53;;;;;;;6.45;4.85;;;;;;;;;;5113066;28;20092;-75
2023/08/25 03:11:19;;;;;;;6.75;5.57;;;;;;;;;;5095574;28;20032;-76
2023/08/25 03:13:48;;;;;;;8.05;6.70;;;;;;;;;;5077893;28;20032;-75
2023/08/25 03:16:14;;;;;;;10.07;7.25;;;;;;;;;;5094969;28;20503;-75
2023/08/25 03:18:41;;;;;;;11.65;6.50;;;;;;;;;;5094734;28;20031;-76
2023/08/25 03:21:07;;;;;;;10.98;5.78;;;;;;;;;;5077889;28;20036;-77
2023/08/25 03:23:35;;;;;;;8.77;7.15;;;;;;;;;;5077454;28;20092;-76
2023/08/25 03:26:02;;;;;;;14.05;7.20;;;;;;;;;;5094486;28;20031;-77
2023/08/25 03:28:29;;;;;;;11.30;6.00;;;;;;;;;;5112808;28;20232;-77
2023/08/25 03:30:55;;;;;;;7.03;5.72;;;;;;;;;;5077488;28;20131;-75
2023/08/25 03:33:24;;;;;;;8.25;5.78;;;;;;;;;;5094542;28;20063;-77
2023/08/25 03:35:50;;;;;;;5.90;5.32;;;;;;;;;;5077503;28;20054;-76
2023/08/25 03:38:18;;;;;;;8.75;6.30;;;;;;;;;;5077986;28;20027;-77
2023/08/25 03:40:44;;;;;;;10.57;5.88;;;;;;;;;;5094130;28;20038;-76
2023/08/25 03:43:10;;;;;;;10.80;5.70;;;;;;;;;;5094441;28;20089;-78
2023/08/25 03:45:37;;;;;;;15.32;5.75;;;;;;;;;;5111992;28;20538;-76
2023/08/25 03:48:03;;;;;;;10.45;5.43;;;;;;;;;;5094072;28;20131;-75
2023/08/25 03:50:30;;;;;;;12.07;5.30;;;;;;;;;;5060464;28;20067;-76
2023/08/25 03:52:59;;;;;;;9.05;5.82;;;;;;;;;;5094455;28;20040;-77
2023/08/25 03:55:25;;;;;;;13.52;6.60;;;;;;;;;;5093924;28;20047;-78
2023/08/25 03:57:51;;;;;;;9.00;5.70;;;;;;;;;;5111632;28;20052;-76
2023/08/25 04:00:17;;;;;;;6.85;5.47;;;;;;;;;;5077081;28;20040;-76
2023/08/25 04:02:43;;;;;;;7.07;5.93;;;;;;;;;;5111702;28;20031;-76
2023/08/25 04:05:11;;;;;;;9.23;5.30;;;;;;;;;;5112080;28;20039;-76
2023/08/25 04:07:37;;;;;;;9.80;5.20;;;;;;;;;;5093419;28;20502;-74
2023/08/25 04:10:05;;;;;;;7.32;5.53;;;;;;;;;;5093859;28;20047;-76
2023/08/25 04:12:32;;;;;;;7.38;6.65;;;;;;;;;;5076941;28;20122;-76
2023/08/25 04:14:58;;;;;;;13.05;6.32;;;;;;;;;;5094261;28;20081;-78
2023/08/25 04:17:24;;;;;;;6.00;5.40;;;;;;;;;;5094057;28;20027;-77
2023/08/25 04:19:50;;;;;;;8.82;5.72;;;;;;;;;;5094024;28;20042;-77
2023/08/25 04:22:16;;;;;;;7.78;6.97;;;;;;;;;;5077560;28;20388;-76
2023/08/25 04:24:42;;;;;;;9.88;6.82;;;;;;;;;;5093621;28;20050;-77
2023/08/25 04:27:10;;;;;;;8.20;7.20;;;;;;;;;;5093220;28;20525;-77
2023/08/25 04:29:36;;;;;;;10.88;7.60;;;;;;;;;;5093170;28;20043;-76
2023/08/25 04:32:03;;;;;;;11.90;7.22;;;;;;;;;;5093350;28;20122;-77
2023/08/25 04:34:36;;;;;;;9.50;6.75;;;;;;;;;;5093012;28;20031;-78
2023/08/25 04:37:03;;;;;;;9.57;6.47;;;;;;;;;;5093117;28;20042;-77
2023/08/25 04:39:29;;;;;;;13.63;8.07;;;;;;;;;;5111495;28;20031;-77
2023/08/25 04:41:55;;;;;;;8.15;6.57;;;;;;;;;;5092639;28;20035;-76
2023/08/25 04:44:21;;;;;;;11.25;7.13;;;;;;;;;;5076254;28;20035;-76
2023/08/25 04:46:47;;;;;;;10.32;7.07;;;;;;;;;;5092365;28;20494;-76
2023/08/25 04:49:15;;;;;;;13.55;7.07;;;;;;;;;;5076059;28;20047;-77
2023/08/25 04:51:42;;;;;;;10.60;6.35;;;;;;;;;;5092494;28;20046;-76
2023/08/25 04:54:09;;;;;;;6.70;5.95;;;;;;;;;;5075882;28;20040;-77
2023/08/25 04:56:39;;;;;;;7.55;5.85;;;;;;;;;;5075843;28;20031;-77
2023/08/25 04:59:05;;;;;;;12.63;5.40;;;;;;;;;;5092617;28;20067;-75
2023/08/25 05:01:32;;;;;;;4.90;4.50;;;;;;;;;;5093008;28;20519;-77
2023/08/25 05:03:59;;;;;;;7.03;4.53;;;;;;;;;;5092503;28;20535;-77
2023/08/25 05:06:25;;;;;;;10.38;5.32;;;;;;;;;;5092753;28;20092;-75
2023/08/25 05:08:51;;;;;;;12.88;4.40;;;;;;;;;;5075509;28;20055;-75
2023/08/25 05:11:17;;;;;;;11.23;4.57;;;;;;;;;;5110600;28;20089;-75
2023/08/25 05:13:44;;;;;;;10.60;4.85;;;;;;;;;;5092365;28;20506;-76
2023/08/25 05:16:17;;;;;;;6.90;4.40;;;;;;;;;;5092432;28;20484;-76
2023/08/25 05:18:50;;;;;;;11.98;4.20;;;;;;;;;;5076972;28;20032;-77
2023/08/25 05:21:17;;;;;;;10.02;4.70;;;;;;;;;;5092271;28;20026;-76
2023/08/25 05:23:46;;;;;;;9.43;5.20;;;;;;;;;;5092095;28;20071;-77
2023/08/25 05:26:14;;;;;;;6.63;4.35;;;;;;;;;;5075945;28;20122;-76
2023/08/25 05:28:42;;;;;;;14.52;4.53;;;;;;;;;;5092136;28;20043;-75
2023/08/25 05:31:08;;;;;;;9.55;4.45;;;;;;;;;;5092504;28;20031;-76
2023/08/25 05:34:00;;;;;;;6.88;4.50;;;;;;;;;;5107046;28;20047;-76
2023/08/25 05:36:36;;;;;;;4.80;4.40;;;;;;;;;;5093975;28;20032;-77
2023/08/25 05:39:02;;;;;;;9.90;4.60;;;;;;;;;;5092299;28;20042;-77
2023/08/25 05:41:28;;;;;;;6.75;4.40;;;;;;;;;;5075384;28;20059;-78
2023/08/25 05:43:55;;;;;;;5.63;4.55;;;;;;;;;;5075237;28;20138;-77
2023/08/25 05:46:21;;;;;;;5.80;4.03;;;;;;;;;;5092251;28;20048;-78
2023/08/25 05:48:47;;;;;;;7.25;4.28;;;;;;;;;;5075315;28;20095;-78
2023/08/25 05:51:13;;;;;;;13.70;2.83;;;;;;;;;;5076185;28;20038;-77
2023/08/25 05:53:39;;;;;;;6.72;3.70;;;;;;;;;;5110842;28;20032;-77
2023/08/25 05:56:06;;;;;;;4.75;3.80;;;;;;;;;;5092856;28;20503;-76
2023/08/25 05:58:32;;;;;;;5.97;3.67;;;;;;;;;;5093314;28;20051;-78
2023/08/25 06:00:58;;;;;;;3.55;3.22;;;;;;;;;;5105500;28;20035;-77
2023/08/25 06:03:25;;;;;;;5.68;3.10;;;;;;;;;;5128695;28;20281;-77
2023/08/25 06:05:52;;;;;;;4.35;2.90;;;;;;;;;;5067501;28;20039;-76
2023/08/25 06:08:18;;;;;;;3.22;2.92;;;;;;;;;;5093045;28;20406;-77
2023/08/25 06:10:44;;;;;;;4.82;2.80;;;;;;;;;;5113387;28;20042;-79
2023/08/25 06:13:11;;;;;;;3.25;2.58;;;;;;;;;;5096149;28;20160;-77
2023/08/25 06:15:37;;;;;;;2.90;2.65;;;;;;;;;;5114156;28;20039;-79
2023/08/25 06:18:03;;;;;;;2.53;2.33;;;;;;;;;;5095458;28;20035;-77
2023/08/25 06:20:32;;;;;;;3.53;2.10;;;;;;;;;;5095699;28;20036;-78
2023/08/25 06:22:58;;;;;;;4.33;2.20;;;;;;;;;;5113761;28;20035;-78
2023/08/25 06:25:24;;;;;;;2.97;2.20;;;;;;;;;;5095400;28;20285;-79
2023/08/25 06:27:50;;;;;;;3.03;2.65;;;;;;;;;;5095124;28;20419;-79
2023/08/25 06:30:16;;;;;;;3.25;2.60;;;;;;;;;;5113643;28;20042;-77
2023/08/25 06:32:43;;;;;;;2.20;2.00;;;;;;;;;;5094573;27;20034;-77
2023/08/25 06:35:12;;;;;;;2.00;1.80;;;;;;;;;;5093939;28;20437;-78
2023/08/25 06:37:38;;;;;;;3.28;1.75;;;;;;;;;;5093739;28;20050;-79
2023/08/25 06:40:07;;;;;;;4.00;1.73;;;;;;;;;;5111696;28;20063;-77
2023/08/25 06:42:35;;;;;;;2.30;1.60;;;;;;;;;;5094954;28;20031;-77
2023/08/25 06:45:01;;;;;;;3.50;1.73;;;;;;;;;;5113097;28;20035;-76
2023/08/25 06:47:27;;;;;;;4.50;1.63;;;;;;;;;;5113392;28;20031;-78
2023/08/25 06:49:54;;;;;;;2.83;1.70;;;;;;;;;;5095049;28;20028;-77
2023/08/25 06:52:20;;;;;;;1.85;1.75;;;;;;;;;;5113510;28;20035;-77
2023/08/25 06:54:47;;;;;;;2.17;1.75;;;;;;;;;;5113380;28;20050;-77
2023/08/25 06:57:13;;;;;;;1.92;1.55;;;;;;;;;;5095132;28;20059;-77
2023/08/25 06:59:39;;;;;;;2.20;1.70;;;;;;;;;;5113113;28;20091;-76
2023/08/25 07:02:05;;;;;;;2.17;1.60;;;;;;;;;;5113097;28;20071;-78
2023/08/25 07:04:31;;;;;;;3.22;1.63;;;;;;;;;;5113227;28;20051;-79
2023/08/25 07:06:57;;;;;;;2.38;1.88;;;;;;;;;;5094802;28;20039;-77
2023/08/25 07:09:23;;;;;;;2.83;1.80;;;;;;;;;;5113266;28;20483;-76
2023/08/25 07:11:49;;;;;;;4.30;1.80;;;;;;;;;;5113065;28;20040;-79
2023/08/25 07:14:16;;;;;;;9.85;1.98;;;;;;;;;;5113730;28;20449;-78
2023/08/25 07:16:43;;;;;;;3.45;1.90;;;;;;;;;;5095039;28;20042;-79
2023/08/25 07:19:09;;;;;;;1.35;1.35;;;;;;;;;;5113179;28;20170;-79
2023/08/25 07:21:35;;;;;;;2.00;1.90;;;;;;;;;;5094253;28;20191;-77
2023/08/25 07:24:01;;;;;;;3.60;2.55;;;;;;;;;;5112772;28;20039;-78
2023/08/25 07:26:27;;;;;;;2.38;2.17;;;;;;;;;;5094824;28;20055;-78
2023/08/25 07:28:53;;;;;;;3.97;1.90;;;;;;;;;;5112507;28;20047;-78
2023/08/25 07:31:19;;;;;;;2.03;1.80;;;;;;;;;;5112711;28;20028;-77
2023/08/25 07:33:45;;;;;;;2.20;2.05;;;;;;;;;;5094356;28;20080;-78
2023/08/25 07:36:11;;;;;;;1.52;1.52;;;;;;;;;;5094365;28;20097;-79
2023/08/25 07:38:38;;;;;;;1.77;1.67;;;;;;;;;;5094325;28;20037;-78
2023/08/25 07:41:04;;;;;;;5.45;2.03;;;;;;;;;;5112566;28;20050;-78
2023/08/25 07:43:30;;;;;;;1.83;1.73;;;;;;;;;;5112435;28;20042;-78
2023/08/25 07:45:56;;;;;;;3.47;1.95;;;;;;;;;;5094068;28;20027;-77
2023/08/25 07:48:23;;;;;;;2.38;2.00;;;;;;;;;;5078037;28;20134;-79
2023/08/25 07:50:50;;;;;;;6.13;2.30;;;;;;;;;;5114691;28;20027;-79
2023/08/25 07:53:16;;;;;;;2.08;1.90;;;;;;;;;;5098692;28;20158;-77
2023/08/25 07:55:42;;;;;;;3.95;2.22;;;;;;;;;;5113860;28;20068;-78
2023/08/25 07:58:08;;;;;;;3.80;2.05;;;;;;;;;;5112957;28;20083;-77
2023/08/25 08:00:35;;;;;;;3.53;1.83;;;;;;;;;;5094382;28;20090;-78
2023/08/25 08:03:09;;;;;;;1.95;1.80;;;;;;;;;;5113275;28;20031;-78
2023/08/25 08:05:36;;;;;;;2.72;2.10;;;;;;;;;;5115709;28;20038;-77
2023/08/25 08:08:02;;;;;;;1.95;1.83;;;;;;;;;;5093628;28;20410;-77
2023/08/25 08:10:29;;;;;;;2.70;2.13;;;;;;;;;;5111946;28;20031;-78
2023/08/25 08:12:55;;;;;;;3.35;1.90;;;;;;;;;;5093468;28;21068;-78
2023/08/25 08:15:21;;;;;;;2.85;1.88;;;;;;;;;;5112194;28;20426;-78
2023/08/25 08:17:47;;;;;;;5.05;1.80;;;;;;;;;;5093635;28;20047;-79
2023/08/25 08:20:14;;;;;;;3.80;2.13;;;;;;;;;;5076982;28;20043;-78
2023/08/25 08:22:41;;;;;;;6.10;1.75;;;;;;;;;;5111651;28;20051;-77
2023/08/25 08:25:11;;;;;;;1.90;1.65;;;;;;;;;;5076481;28;20130;-78
2023/08/25 08:27:36;;;;;;;;;;;;;;;;;;5093689;28;20079;-78
2023/08/25 08:30:03;;;;;;;1.80;1.70;;;;;;;;;;5093408;28;20061;-76
2023/08/25 08:32:31;;;;;;;2.15;1.80;;;;;;;;;;5092855;28;20503;-78
2023/08/25 08:34:57;;;;;;;2.65;1.83;;;;;;;;;;5111230;28;20031;-77
2023/08/25 08:37:23;;;;;;;2.97;1.92;;;;;;;;;;5111362;28;20024;-78
2023/08/25 08:39:50;;;;;;;2.95;1.55;;;;;;;;;;5112272;28;20043;-77
2023/08/25 08:42:16;;;;;;;2.90;1.60;;;;;;;;;;5076356;28;20107;-76
2023/08/25 08:44:45;;;;;;;3.88;1.48;;;;;;;;;;5060548;28;20563;-79
2023/08/25 08:47:11;;;;;;;4.32;1.88;;;;;;;;;;5094170;28;20042;-78
2023/08/25 08:49:37;;;;;;;2.38;1.38;;;;;;;;;;5076380;28;20047;-78
2023/08/25 08:52:05;;;;;;;4.50;1.95;;;;;;;;;;5111348;28;20522;-78
2023/08/25 08:54:32;;;;;;;2.03;1.92;;;;;;;;;;5111565;28;20116;-77
2023/08/25 08:56:59;;;;;;;3.03;1.75;;;;;;;;;;5092703;28;20416;-79
2023/08/25 08:59:25;;;;;;;2.97;2.15;;;;;;;;;;5111220;28;20138;-77
2023/08/25 09:01:51;;;;;;;1.77;1.67;;;;;;;;;;5092669;28;20039;-76
2023/08/25 09:04:21;;;;;;;3.65;1.92;;;;;;;;;;5111312;28;20093;-77
2023/08/25 09:06:47;;;;;;;;;;;;;;;;;;5077407;28;20514;-78
2023/08/25 09:09:13;;;;;;;6.28;1.80;;;;;;;;;;5119110;28;19927;-78
2023/08/25 09:11:39;;;;;;;2.10;1.80;;;;;;;;;;5102031;28;20027;-79
2023/08/25 09:14:07;;;;;;;2.58;1.70;;;;;;;;;;5097317;28;20046;-78
2023/08/25 09:16:36;;;;;;;2.55;2.35;;;;;;;;;;5110648;28;20070;-77
2023/08/25 09:19:02;;;;;;;3.55;1.80;;;;;;;;;;5092631;28;20036;-78
2023/08/25 09:21:29;;;;;;;4.38;2.40;;;;;;;;;;5092770;28;20616;-78
2023/08/25 09:24:04;;;;;;;3.90;1.92;;;;;;;;;;5110823;28;20040;-77
2023/08/25 09:26:38;;;;;;;3.80;2.30;;;;;;;;;;5092956;28;20130;-77
2023/08/25 09:29:04;;;;;;;2.00;1.80;;;;;;;;;;5077012;28;20051;-77
2023/08/25 09:31:30;;;;;;;5.57;1.90;;;;;;;;;;5112158;28;20046;-77
2023/08/25 09:34:00;;;;;;;2.10;2.00;;;;;;;;;;5093838;28;20435;-78
2023/08/25 09:36:26;;;;;;;1.90;1.80;;;;;;;;;;5096396;28;20043;-78
2023/08/25 09:38:52;;;;;;;8.45;2.17;;;;;;;;;;5076748;28;20100;-76
2023/08/25 09:41:28;;;;;;;2.20;1.80;;;;;;;;;;5076902;28;20502;-77
2023/08/25 09:43:58;;;;;;;4.75;2.08;;;;;;;;;;5092971;28;20043;-77
2023/08/25 09:46:27;;;;;;;2.60;2.40;;;;;;;;;;5112480;28;20032;-78
2023/08/25 09:48:59;;;;;;;2.60;2.40;;;;;;;;;;5111267;28;20134;-78
2023/08/25 09:51:27;;;;;;;5.15;4.70;;;;;;;;;;5077835;28;20031;-77
2023/08/25 09:53:53;;;;;;;4.60;1.88;;;;;;;;;;5094383;28;20114;-77
2023/08/25 09:56:19;;;;;;;4.03;2.33;;;;;;;;;;5094064;28;20032;-78
2023/08/25 09:58:46;;;;;;;3.45;1.63;;;;;;;;;;5092867;28;20087;-78
2023/08/25 10:01:12;;;;;;;4.38;1.50;;;;;;;;;;5092747;28;20032;-77
2023/08/25 10:03:38;;;;;;;2.17;1.98;;;;;;;;;;5110681;28;20047;-78
2023/08/25 10:06:04;;;;;;;1.77;1.65;;;;;;;;;;5092595;28;20054;-78
2023/08/25 10:08:30;;;;;;;1.80;1.70;;;;;;;;;;5093350;28;20054;-78
2023/08/25 10:10:56;;;;;;;2.00;1.80;;;;;;;;;;5110815;28;20032;-78
2023/08/25 10:13:23;;;;;;;5.18;1.80;;;;;;;;;;5076696;28;20040;-77
2023/08/25 10:15:49;;;;;;;1.70;1.60;;;;;;;;;;5092630;28;20168;-77
2023/08/25 10:18:16;;;;;;;3.92;2.00;;;;;;;;;;5091979;28;20126;-77
2023/08/25 10:20:42;;;;;;;1.73;1.63;;;;;;;;;;5092347;28;20032;-78
2023/08/25 10:23:08;;;;;;;1.98;1.88;;;;;;;;;;5110403;28;20062;-77
2023/08/25 10:25:35;;;;;;;2.72;1.85;;;;;;;;;;5110424;28;20028;-77
2023/08/25 10:28:04;;;;;;;1.90;1.70;;;;;;;;;;5110185;28;20043;-78
2023/08/25 10:30:30;;;;;;;4.63;2.05;;;;;;;;;;5092410;28;20027;-77
2023/08/25 10:32:59;;;;;;;1.83;1.70;;;;;;;;;;5074564;28;20099;-77
2023/08/25 10:35:41;;;;;;;2.05;1.95;;;;;;;;;;5110300;28;20074;-77
2023/08/25 10:38:20;;;;;;;2.00;1.90;;;;;;;;;;5091904;28;20040;-77
2023/08/25 10:40:49;;;;;;;2.15;1.95;;;;;;;;;;5110340;28;20036;-78
2023/08/25 10:43:15;;;;;;;2.65;1.77;;;;;;;;;;5110476;28;20059;-77
2023/08/25 10:45:41;;;;;;;2.35;1.77;;;;;;;;;;5109867;28;20028;-77
2023/08/25 10:48:09;;;;;;;4.43;1.73;;;;;;;;;;5074452;28;20044;-77
2023/08/25 10:50:35;;;;;;;1.88;1.77;;;;;;;;;;5091946;28;20035;-78
2023/08/25 10:53:01;;;;;;;1.98;1.88;;;;;;;;;;5092403;28;20593;-77
2023/08/25 10:55:32;;;;;;;2.83;1.90;;;;;;;;;;5111760;28;20031;-76
2023/08/25 10:58:04;;;;;;;6.10;1.98;;;;;;;;;;5086022;28;20101;-77
2023/08/25 11:00:34;;;;;;;2.10;1.90;;;;;;;;;;5072959;28;20036;-77
2023/08/25 11:03:01;;;;;;;5.63;3.47;;;;;;;;;;5071124;28;20060;-77
2023/08/25 11:05:34;;;;;;;7.38;2.95;;;;;;;;;;5055204;28;20043;-77
2023/08/25 11:08:02;;;;;;;2.95;2.47;;;;;;;;;;5071011;28;20084;-78
2023/08/25 11:10:33;;;;;;;7.95;2.17;;;;;;;;;;5072861;28;20059;-77
2023/08/25 11:12:59;;;;;;;;;;;;;;;;;;5071592;28;20085;-77
2023/08/25 11:15:26;;;;;;;2.28;1.95;;;;;;;;;;5072985;28;19920;-77
2023/08/25 11:17:52;;;;;;;3.55;1.83;;;;;;;;;;5072700;28;20492;-77
2023/08/25 11:20:19;;;;;;;2.75;2.10;;;;;;;;;;5072029;28;20041;-76
2023/08/25 11:22:52;;;;;;;4.45;2.22;;;;;;;;;;5073143;28;20540;-77
2023/08/25 11:25:18;;;;;;;2.25;2.05;;;;;;;;;;5073343;28;20037;-77
2023/08/25 11:27:52;;;;;;;2.20;2.00;;;;;;;;;;5074477;28;20461;-76
2023/08/25 11:30:18;;;;;;;2.10;2.00;;;;;;;;;;5074605;28;20032;-77
2023/08/25 11:32:44;;;;;;;2.05;1.90;;;;;;;;;;5056388;28;20029;-78
2023/08/25 11:35:12;;;;;;;2.00;1.80;;;;;;;;;;5074353;28;20133;-77
2023/08/25 11:37:42;;;;;;;3.72;2.10;;;;;;;;;;5074289;28;20037;-77
2023/08/25 11:40:14;;;;;;;1.90;1.80;;;;;;;;;;5055484;28;20123;-78
2023/08/25 11:42:40;;;;;;;3.00;2.05;;;;;;;;;;5072663;28;20033;-77
2023/08/25 11:45:09;;;;;;;2.13;2.00;;;;;;;;;;5070910;28;20029;-77
2023/08/25 11:47:39;;;;;;;3.38;2.00;;;;;;;;;;5070701;28;20127;-77
2023/08/25 11:50:06;;;;;;;2.30;2.10;;;;;;;;;;5070837;28;20036;-78
2023/08/25 11:52:35;;;;;;;4.47;2.20;;;;;;;;;;5070713;28;20068;-78
2023/08/25 11:55:00;;;;;;;1.85;1.75;;;;;;;;;;5070788;28;20052;-76
2023/08/25 11:57:32;;;;;;;3.33;2.47;;;;;;;;;;5075498;28;20039;-77
2023/08/25 11:59:59;;;;;;;3.60;2.70;;;;;;;;;;5112672;28;20039;-77
2023/08/25 12:02:25;;;;;;;1.98;1.88;;;;;;;;;;5077262;28;20031;-78
2023/08/25 12:04:54;;;;;;;3.47;3.17;;;;;;;;;;5095039;28;20046;-77
2023/08/25 12:07:21;;;;;;;4.13;2.30;;;;;;;;;;5113327;28;20031;-78
2023/08/25 12:09:51;;;;;;;2.30;2.20;;;;;;;;;;5116567;28;20079;-78
2023/08/25 12:12:17;;;;;;;1.65;1.63;;;;;;;;;;5108985;28;20099;-78
2023/08/25 12:14:43;;;;;;;3.00;2.17;;;;;;;;;;5125594;28;20035;-77
2023/08/25 12:17:19;;;;;;;4.65;2.35;;;;;;;;;;5098721;28;20036;-78
2023/08/25 12:19:45;;;;;;;4.15;2.20;;;;;;;;;;5062387;28;20042;-77
2023/08/25 12:22:11;;;;;;;7.90;2.30;;;;;;;;;;5093648;28;20102;-77
2023/08/25 12:24:37;;;;;;;4.72;2.60;;;;;;;;;;5076661;28;20104;-76
2023/08/25 12:27:03;;;;;;;3.25;2.30;;;;;;;;;;5093228;28;20503;-78
2023/08/25 12:29:31;;;;;;;5.85;2.50;;;;;;;;;;5093570;28;20039;-77
2023/08/25 12:31:57;;;;;;;3.33;2.60;;;;;;;;;;5111805;28;20036;-76
2023/08/25 12:34:23;;;;;;;3.53;2.60;;;;;;;;;;5093294;28;20395;-78
2023/08/25 12:36:49;;;;;;;2.90;2.22;;;;;;;;;;5093721;28;20034;-78
2023/08/25 12:39:15;;;;;;;2.20;2.10;;;;;;;;;;5111157;28;20042;-78
2023/08/25 12:41:41;;;;;;;5.50;2.28;;;;;;;;;;5111385;28;20063;-77
2023/08/25 12:44:07;;;;;;;3.35;2.40;;;;;;;;;;5093168;28;20087;-77
2023/08/25 12:46:33;;;;;;;2.88;2.25;;;;;;;;;;5111473;28;20031;-75
2023/08/25 12:48:59;;;;;;;3.03;2.55;;;;;;;;;;5092974;28;20047;-76
2023/08/25 12:51:25;;;;;;;5.68;3.00;;;;;;;;;;5092733;28;20031;-77
2023/08/25 12:53:53;;;;;;;3.38;2.70;;;;;;;;;;5093165;28;20059;-76
2023/08/25 12:56:19;;;;;;;4.10;2.42;;;;;;;;;;5111133;28;20456;-77
2023/08/25 12:58:45;;;;;;;2.60;2.40;;;;;;;;;;5110957;28;20051;-77
2023/08/25 13:01:11;;;;;;;2.55;2.35;;;;;;;;;;5092980;28;20087;-77
2023/08/25 13:03:37;;;;;;;2.58;2.40;;;;;;;;;;5111208;28;20028;-77
2023/08/25 13:06:03;;;;;;;2.85;2.50;;;;;;;;;;5092983;28;20168;-77
2023/08/25 13:08:31;;;;;;;7.03;2.40;;;;;;;;;;5092971;28;20458;-76
2023/08/25 13:10:56;;;;;;;2.72;2.53;;;;;;;;;;5111038;28;20124;-78
2023/08/25 13:13:23;;;;;;;2.60;2.40;;;;;;;;;;5110828;28;20036;-78
2023/08/25 13:15:49;;;;;;;5.07;4.60;;;;;;;;;;5092722;28;20042;-78
2023/08/25 13:18:16;;;;;;;4.63;2.55;;;;;;;;;;5075163;28;20039;-77
2023/08/25 13:20:41;;;;;;;5.18;2.42;;;;;;;;;;5110933;28;20061;-77
2023/08/25 13:23:07;;;;;;;2.58;2.40;;;;;;;;;;5110514;28;20091;-78
2023/08/25 13:25:33;;;;;;;5.50;2.78;;;;;;;;;;5110686;28;20046;-76
2023/08/25 13:27:59;;;;;;;2.58;2.38;;;;;;;;;;5092495;28;20050;-76
2023/08/25 13:30:25;;;;;;;4.03;2.30;;;;;;;;;;5110626;28;20498;-78
2023/08/25 13:32:51;;;;;;;2.95;2.40;;;;;;;;;;5092378;28;20031;-77
2023/08/25 13:35:17;;;;;;;2.58;2.47;;;;;;;;;;5110489;28;20089;-77
2023/08/25 13:37:43;;;;;;;3.60;2.35;;;;;;;;;;5092579;28;20036;-76
2023/08/25 13:40:10;;;;;;;4.28;2.60;;;;;;;;;;5092858;28;20528;-77
2023/08/25 13:42:37;;;;;;;7.30;2.55;;;;;;;;;;5110595;28;20087;-76
2023/08/25 13:45:04;;;;;;;2.28;2.13;;;;;;;;;;5110372;28;20100;-76
2023/08/25 13:47:32;;;;;;;4.38;2.38;;;;;;;;;;5075052;28;20039;-77
2023/08/25 13:49:58;;;;;;;2.95;2.42;;;;;;;;;;5091941;28;20036;-76
2023/08/25 13:52:24;;;;;;;3.92;2.38;;;;;;;;;;5092032;28;20443;-78
2023/08/25 13:54:50;;;;;;;3.20;2.60;;;;;;;;;;5091701;28;20058;-77
2023/08/25 13:57:16;;;;;;;3.28;2.42;;;;;;;;;;5109986;28;20038;-78
2023/08/25 13:59:42;;;;;;;3.75;2.33;;;;;;;;;;5110120;28;20062;-77
2023/08/25 14:02:08;;;;;;;4.03;2.55;;;;;;;;;;5092586;28;20407;-77
2023/08/25 14:04:34;;;;;;;5.45;2.60;;;;;;;;;;5110805;28;20118;-76
2023/08/25 14:07:00;;;;;;;2.97;2.63;;;;;;;;;;5110548;28;20027;-76
2023/08/25 14:09:26;;;;;;;2.55;2.35;;;;;;;;;;5110084;28;20050;-77
2023/08/25 14:11:52;;;;;;;3.08;2.67;;;;;;;;;;5110251;28;20110;-77
2023/08/25 14:14:18;;;;;;;3.47;3.17;;;;;;;;;;5110120;28;20088;-76
2023/08/25 14:16:45;;;;;;;4.85;2.92;;;;;;;;;;5092474;28;20491;-76
2023/08/25 14:19:11;;;;;;;3.55;2.42;;;;;;;;;;5110271;28;20081;-76
2023/08/25 14:21:37;;;;;;;5.55;2.50;;;;;;;;;;5110277;28;20118;-76
2023/08/25 14:24:03;;;;;;;8.48;2.90;;;;;;;;;;5092110;28;20461;-76
2023/08/25 14:26:30;;;;;;;3.22;2.50;;;;;;;;;;5109780;28;20040;-77
2023/08/25 14:28:56;;;;;;;6.82;2.78;;;;;;;;;;5091822;28;20051;-76
2023/08/25 14:31:22;;;;;;;4.90;3.03;;;;;;;;;;5112514;28;20491;-75
2023/08/25 14:33:48;;;;;;;3.08;2.88;;;;;;;;;;5113881;28;20040;-77
2023/08/25 14:36:14;;;;;;;3.35;3.00;;;;;;;;;;5095690;28;20027;-76
2023/08/25 14:38:40;;;;;;;2.85;2.65;;;;;;;;;;5113518;28;20043;-75
2023/08/25 14:41:07;;;;;;;5.35;3.50;;;;;;;;;;5113772;28;20032;-76
2023/08/25 14:43:33;;;;;;;7.95;4.55;;;;;;;;;;5096346;28;20142;-77